Cudjoe Key, Florida
Current Conditions -  °F | °C
As of 8:53 PM on Saturday 20 Dec 2014 (Local Time) from KNQX Reporting Station
Scattered Clouds Scattered Clouds  
Wind Chill: 73°   Ceiling: Unl
Heat Index: 73°   Visibility: 10mi
Dew Point: 69°   Wind: 7mph
Humidity: 87%   Direction: 100°E
Pressure: 30.07"   Gusts: NA
Location:  24.6465°N, 81.5399°W
Report Text: KNQX 210153Z 10006KT 10SM SCT120 23/21 A3007 RMK AO2 SLP179 T02280206
Loading
Personal Weather Stations






























Interactive Weather Map New forecast layout! Learn more

10-Day Weather Forecast

Advertisements
Track Severe Weather on mobile